Time;durP1;ratioP1;P1;durP2;ratioP2;P2;SDS_P1;SDS_P2;PMS_P1;PMS_P2;Temp;Humidity;BMP_temperature;BMP_pressure;BME280_temperature;BME280_humidity;BME280_pressure;Samples;Min_cycle;Max_cycle;Signal;HPM_P1;HPM_P2
2022/01/03 00:01:45;;;;;;;22.45;6.60;;;10.60;99.90;;;;;;5057353;28;20029;-75
2022/01/03 00:04:12;;;;;;;21.38;6.22;;;10.60;99.90;;;;;;5057254;28;20067;-77
2022/01/03 00:06:38;;;;;;;19.38;6.25;;;10.60;99.90;;;;;;5056630;28;20036;-75
2022/01/03 00:09:05;;;;;;;25.30;7.28;;;10.60;99.90;;;;;;5057559;28;20013;-75
2022/01/03 00:11:31;;;;;;;28.95;6.80;;;10.60;99.90;;;;;;5058107;28;20017;-76
2022/01/03 00:13:56;;;;;;;20.67;7.07;;;10.60;99.90;;;;;;5056951;28;20060;-77
2022/01/03 00:16:24;;;;;;;20.40;7.45;;;10.60;99.90;;;;;;5032486;28;20433;-78
2022/01/03 00:18:51;;;;;;;27.92;7.07;;;10.50;99.90;;;;;;5034240;28;20049;-75
2022/01/03 00:21:18;;;;;;;22.92;7.03;;;10.60;99.90;;;;;;5034781;28;20461;-77
2022/01/03 00:23:53;;;;;;;26.52;7.10;;;10.60;99.90;;;;;;5039751;28;20029;-76
2022/01/03 00:26:26;;;;;;;28.83;7.07;;;10.60;99.90;;;;;;5039143;28;20013;-75
2022/01/03 00:28:59;;;;;;;18.35;6.60;;;10.60;99.90;;;;;;5036042;28;20033;-77
2022/01/03 00:31:36;;;;;;;25.05;6.10;;;10.60;99.90;;;;;;5034838;28;20097;-77
2022/01/03 00:34:04;;;;;;;24.23;6.05;;;10.60;99.90;;;;;;5035463;28;20022;-77
2022/01/03 00:36:31;;;;;;;18.15;4.55;;;10.60;99.90;;;;;;5039921;28;20045;-76
2022/01/03 00:38:57;;;;;;;21.73;5.07;;;10.60;99.90;;;;;;5038517;28;20021;-76
2022/01/03 00:41:23;;;;;;;17.63;4.82;;;10.60;99.90;;;;;;5035221;28;20498;-75
2022/01/03 00:43:52;;;;;;;12.00;3.90;;;10.60;99.90;;;;;;5034441;28;20024;-77
2022/01/03 00:46:18;;;;;;;18.55;3.85;;;10.60;99.90;;;;;;5036801;28;20095;-75
2022/01/03 00:48:44;;;;;;;16.00;3.47;;;10.50;99.90;;;;;;5040163;28;20024;-76
2022/01/03 00:51:13;;;;;;;13.48;2.75;;;10.50;99.90;;;;;;5041465;28;20083;-76
2022/01/03 00:53:39;;;;;;;9.82;2.55;;;10.50;99.90;;;;;;5037981;28;20025;-76
2022/01/03 00:56:12;;;;;;;13.55;3.08;;;10.40;99.90;;;;;;5033771;28;20075;-75
2022/01/03 00:59:03;;;;;;;7.28;2.03;;;10.40;99.90;;;;;;5033896;28;20026;-76
2022/01/03 01:01:30;;;;;;;12.18;2.42;;;10.30;99.90;;;;;;5038480;28;20048;-76
2022/01/03 01:03:57;;;;;;;9.13;1.90;;;10.30;99.90;;;;;;5042353;28;20056;-75
2022/01/03 01:06:24;;;;;;;10.43;1.70;;;10.30;99.90;;;;;;5035492;28;20143;-74
2022/01/03 01:08:57;;;;;;;8.00;1.60;;;10.30;99.90;;;;;;5033048;28;20096;-77
2022/01/03 01:11:27;;;;;;;8.40;1.90;;;10.30;99.90;;;;;;5033136;28;20018;-77
2022/01/03 01:13:54;;;;;;;11.20;1.90;;;10.20;99.90;;;;;;5016125;28;20482;-74
2022/01/03 01:16:20;;;;;;;7.93;1.58;;;10.20;99.90;;;;;;5054349;28;20084;-75
2022/01/03 01:18:46;;;;;;;9.13;1.77;;;10.20;99.90;;;;;;5047815;28;20071;-76
2022/01/03 01:21:11;;;;;;;10.55;1.48;;;10.10;99.90;;;;;;5015330;28;20025;-75
2022/01/03 01:23:41;;;;;;;9.65;1.88;;;10.10;99.90;;;;;;5033587;28;20042;-76
2022/01/03 01:28:50;;;;;;;9.27;2.43;;;10.00;99.90;;;;;;5044612;28;20447;-75
2022/01/03 01:31:20;;;;;;;9.18;2.25;;;10.00;99.90;;;;;;5028730;28;20033;-77
2022/01/03 01:33:52;;;;;;;12.27;2.15;;;10.00;99.90;;;;;;5041812;28;20049;-75
2022/01/03 01:36:21;;;;;;;7.60;2.05;;;10.00;99.90;;;;;;5040143;28;20093;-76
2022/01/03 01:38:50;;;;;;;4.50;1.73;;;10.00;99.90;;;;;;5039836;28;20371;-77
2022/01/03 01:41:18;;;;;;;6.18;1.30;;;10.10;99.90;;;;;;5039352;28;20421;-75
2022/01/03 01:43:47;;;;;;;3.47;1.10;;;10.00;99.90;;;;;;5040211;28;20435;-78
2022/01/03 01:46:21;;;;;;;3.40;1.13;;;10.00;99.90;;;;;;5040941;28;20036;-76
2022/01/03 01:48:50;;;;;;;3.55;1.20;;;10.00;99.90;;;;;;5040517;28;20030;-76
2022/01/03 01:51:18;;;;;;;5.57;0.95;;;10.00;99.90;;;;;;5024219;28;20442;-76
2022/01/03 01:53:50;;;;;;;6.05;1.27;;;10.00;99.90;;;;;;5022307;28;20105;-75
2022/01/03 01:56:19;;;;;;;4.60;0.90;;;9.90;99.90;;;;;;5039191;28;20029;-76
2022/01/03 01:59:31;;;;;;;7.05;1.20;;;9.90;99.90;;;;;;5040903;28;20037;-76
2022/01/03 02:02:05;;;;;;;4.28;1.23;;;9.90;99.90;;;;;;5005841;28;20029;-78
2022/01/03 02:04:45;;;;;;;4.70;1.20;;;9.90;99.90;;;;;;5041778;28;20514;-77
2022/01/03 02:07:23;;;;;;;6.72;1.58;;;9.90;99.90;;;;;;5039887;28;20025;-78
2022/01/03 02:10:07;;;;;;;4.75;1.38;;;9.80;99.90;;;;;;5037558;28;20021;-77
2022/01/03 02:12:39;;;;;;;8.50;1.50;;;9.80;99.90;;;;;;5042277;28;20036;-77
2022/01/03 02:15:10;;;;;;;3.53;1.38;;;9.80;99.90;;;;;;5043162;28;20092;-78
2022/01/03 02:17:37;;;;;;;5.43;1.60;;;9.80;99.90;;;;;;5023455;28;20022;-77
2022/01/03 02:20:04;;;;;;;6.05;1.30;;;9.70;99.90;;;;;;5041452;28;20025;-78
2022/01/03 02:22:30;;;;;;;11.20;1.63;;;9.70;99.90;;;;;;5039776;28;20467;-79
2022/01/03 02:24:56;;;;;;;6.30;1.95;;;9.60;99.90;;;;;;5022316;28;20398;-78
2022/01/03 02:27:21;;;;;;;5.38;1.20;;;9.70;99.90;;;;;;5023010;28;20382;-79
2022/01/03 02:29:47;;;;;;;9.40;1.27;;;9.70;99.90;;;;;;5040847;28;20103;-78
2022/01/03 02:32:12;;;;;;;5.10;1.63;;;9.70;99.90;;;;;;5022017;28;20079;-77
2022/01/03 02:34:38;;;;;;;7.20;1.30;;;9.70;99.90;;;;;;5040005;28;20030;-78
2022/01/03 02:37:04;;;;;;;9.07;1.25;;;9.70;99.90;;;;;;5041671;28;20428;-78
2022/01/03 02:39:29;;;;;;;4.95;1.20;;;9.60;99.90;;;;;;5038633;28;20022;-77
2022/01/03 02:41:55;;;;;;;8.60;1.20;;;9.60;99.90;;;;;;5038859;28;20032;-78
2022/01/03 02:44:20;;;;;;;7.43;1.45;;;9.60;99.90;;;;;;5035958;28;20462;-77
2022/01/03 02:46:46;;;;;;;6.10;1.20;;;9.60;99.90;;;;;;5036842;28;20052;-77
2022/01/03 02:49:12;;;;;;;4.43;1.27;;;9.60;99.90;;;;;;5027139;28;20047;-78
2022/01/03 02:51:37;;;;;;;8.07;1.30;;;9.60;99.90;;;;;;5042403;28;20034;-77
2022/01/03 02:54:03;;;;;;;4.43;1.23;;;9.60;99.90;;;;;;5041863;28;20026;-76
2022/01/03 02:56:33;;;;;;;6.07;1.17;;;9.60;99.90;;;;;;5042015;28;20026;-77
2022/01/03 02:58:59;;;;;;;8.88;1.30;;;9.50;99.90;;;;;;5046646;28;20073;-77
2022/01/03 03:01:25;;;;;;;10.90;1.83;;;9.60;99.90;;;;;;5051207;28;20046;-77
2022/01/03 03:03:51;;;;;;;8.00;1.35;;;9.50;99.90;;;;;;5038924;28;20030;-77
2022/01/03 03:06:17;;;;;;;12.20;1.75;;;9.50;99.90;;;;;;5035822;28;20028;-77
2022/01/03 03:08:42;;;;;;;11.50;2.20;;;9.50;99.90;;;;;;5035893;28;20037;-78
2022/01/03 03:11:08;;;;;;;11.60;2.05;;;9.50;99.90;;;;;;5038322;28;20051;-78
2022/01/03 03:13:34;;;;;;;14.68;2.33;;;9.50;99.90;;;;;;5049356;28;20021;-77
2022/01/03 03:16:00;;;;;;;15.00;2.20;;;9.50;99.90;;;;;;5029697;28;20041;-78
2022/01/03 03:18:25;;;;;;;11.75;2.05;;;9.50;99.90;;;;;;5046298;28;20116;-76
2022/01/03 03:20:54;;;;;;;13.13;1.75;;;9.40;99.90;;;;;;5038082;28;20025;-77
2022/01/03 03:23:20;;;;;;;19.88;2.33;;;9.40;99.90;;;;;;5020568;28;20025;-76
2022/01/03 03:25:46;;;;;;;17.45;2.53;;;9.40;99.90;;;;;;5037758;28;20475;-76
2022/01/03 03:28:15;;;;;;;15.05;2.35;;;9.30;99.90;;;;;;5037330;28;20029;-78
2022/01/03 03:30:43;;;;;;;11.82;1.73;;;9.40;99.90;;;;;;5038124;28;20055;-76
2022/01/03 03:33:14;;;;;;;12.10;1.85;;;9.30;99.90;;;;;;5045870;28;20021;-78
2022/01/03 03:35:41;;;;;;;19.42;2.28;;;9.30;99.90;;;;;;5037036;28;20029;-77
2022/01/03 03:38:07;;;;;;;15.57;2.38;;;9.30;99.90;;;;;;5036027;28;20021;-76
2022/01/03 03:40:32;;;;;;;18.77;2.38;;;9.30;99.90;;;;;;5034707;28;20072;-76
2022/01/03 03:42:58;;;;;;;23.27;3.40;;;9.20;99.90;;;;;;5035601;28;20025;-78
2022/01/03 03:45:24;;;;;;;25.17;2.95;;;9.20;99.90;;;;;;5035825;28;20398;-77
2022/01/03 03:47:51;;;;;;;19.02;2.58;;;9.30;99.90;;;;;;5046694;28;20093;-76
2022/01/03 03:50:17;;;;;;;21.48;2.85;;;9.20;99.90;;;;;;5057989;28;20024;-76
2022/01/03 03:52:43;;;;;;;13.77;2.72;;;9.30;99.90;;;;;;5048543;28;20075;-77
2022/01/03 03:55:10;;;;;;;26.27;4.20;;;9.30;99.90;;;;;;5042658;28;20017;-78
2022/01/03 03:57:36;;;;;;;32.28;4.85;;;9.40;99.90;;;;;;5035833;28;20048;-77
2022/01/03 04:00:06;;;;;;;23.50;4.50;;;9.30;99.90;;;;;;5035138;28;20467;-77
2022/01/03 04:02:32;;;;;;;22.80;3.97;;;9.30;99.90;;;;;;5025659;28;20029;-77
2022/01/03 04:04:59;;;;;;;24.85;3.88;;;9.30;99.90;;;;;;5040435;28;20032;-78
2022/01/03 04:07:24;;;;;;;25.40;5.20;;;9.30;99.90;;;;;;5035774;28;20021;-75
2022/01/03 04:09:50;;;;;;;25.77;4.75;;;9.30;99.90;;;;;;5019090;28;20028;-77
2022/01/03 04:12:15;;;;;;;24.20;5.25;;;9.30;99.90;;;;;;5033482;28;20025;-78
2022/01/03 04:14:41;;;;;;;25.80;5.28;;;9.30;99.90;;;;;;5022024;28;20029;-77
2022/01/03 04:17:06;;;;;;;26.73;4.82;;;9.40;99.90;;;;;;5041262;28;20039;-76
2022/01/03 04:19:32;;;;;;;30.35;6.35;;;9.40;99.90;;;;;;5040747;28;20036;-77
2022/01/03 04:21:58;;;;;;;24.92;4.78;;;9.60;99.90;;;;;;5035790;28;20052;-78
2022/01/03 04:24:23;;;;;;;33.15;6.55;;;9.50;99.90;;;;;;5035895;28;20078;-78
2022/01/03 04:26:49;;;;;;;24.88;4.20;;;9.50;99.90;;;;;;5034563;28;20021;-76
2022/01/03 04:29:15;;;;;;;30.23;4.43;;;9.40;99.90;;;;;;5034700;28;20028;-77
2022/01/03 04:31:41;;;;;;;28.10;4.50;;;9.50;99.90;;;;;;5035717;28;20021;-79
2022/01/03 04:34:08;;;;;;;27.48;4.03;;;9.50;99.90;;;;;;5038085;28;20402;-80
2022/01/03 04:36:34;;;;;;;29.95;4.10;;;9.50;99.90;;;;;;5037352;28;20114;-77
2022/01/03 04:39:00;;;;;;;29.48;4.65;;;9.50;99.90;;;;;;5024621;28;20093;-77
2022/01/03 04:41:25;;;;;;;29.90;4.50;;;9.50;99.90;;;;;;5041161;28;20056;-77
2022/01/03 04:43:51;;;;;;;32.60;4.65;;;9.50;99.90;;;;;;5019823;28;20021;-78
2022/01/03 04:46:16;;;;;;;35.65;4.53;;;9.50;99.90;;;;;;5035910;28;20685;-77
2022/01/03 04:48:42;;;;;;;37.22;4.78;;;9.50;99.90;;;;;;5037499;28;20089;-78
2022/01/03 04:51:09;;;;;;;38.05;4.68;;;9.50;99.90;;;;;;5042586;28;20071;-76
2022/01/03 04:53:36;;;;;;;37.63;4.70;;;9.50;99.90;;;;;;5042510;28;20027;-77
2022/01/03 04:56:01;;;;;;;32.15;4.50;;;9.50;99.90;;;;;;5044967;28;20020;-78
2022/01/03 04:58:27;;;;;;;24.63;4.20;;;9.50;99.90;;;;;;5036204;28;20383;-78
2022/01/03 05:00:53;;;;;;;32.95;4.75;;;9.60;99.90;;;;;;5040605;28;20029;-77
2022/01/03 05:03:18;;;;;;;29.77;4.25;;;9.60;99.90;;;;;;5036059;28;20041;-79
2022/01/03 05:05:44;;;;;;;50.40;4.88;;;9.60;99.90;;;;;;5042210;28;20056;-78
2022/01/03 05:08:09;;;;;;;30.48;3.85;;;9.60;99.90;;;;;;5041410;28;20501;-77
2022/01/03 05:10:35;;;;;;;37.90;4.78;;;9.60;99.90;;;;;;5019221;28;20028;-79
2022/01/03 05:13:01;;;;;;;33.63;5.10;;;9.70;99.90;;;;;;5023475;28;20112;-77
2022/01/03 05:15:27;;;;;;;32.53;4.30;;;9.70;99.90;;;;;;5019486;28;20113;-77
2022/01/03 05:17:52;;;;;;;34.72;4.90;;;9.80;99.90;;;;;;5035718;28;20072;-78
2022/01/03 05:20:18;;;;;;;36.35;4.75;;;9.60;99.90;;;;;;5040711;28;20026;-76
2022/01/03 05:22:44;;;;;;;39.35;4.50;;;9.60;99.90;;;;;;5021501;28;20089;-78
2022/01/03 05:25:10;;;;;;;41.60;5.10;;;9.70;99.90;;;;;;5040775;28;20040;-79
2022/01/03 05:27:37;;;;;;;41.00;6.07;;;9.70;99.90;;;;;;5043721;28;20025;-77
2022/01/03 05:30:04;;;;;;;36.75;4.80;;;9.70;99.90;;;;;;5041274;28;20028;-77
2022/01/03 05:32:30;;;;;;;32.17;4.65;;;9.70;99.90;;;;;;5019028;28;20065;-79
2022/01/03 05:34:56;;;;;;;31.98;4.47;;;9.60;99.90;;;;;;5036968;28;20023;-77
2022/01/03 05:37:22;;;;;;;42.40;5.22;;;9.70;99.90;;;;;;5035332;28;20048;-78
2022/01/03 05:39:48;;;;;;;26.80;4.72;;;9.70;99.90;;;;;;5041287;28;20026;-76
2022/01/03 05:42:14;;;;;;;37.58;4.53;;;9.70;99.90;;;;;;5024793;28;20471;-77
2022/01/03 05:44:40;;;;;;;44.65;5.80;;;9.70;99.90;;;;;;5040535;28;20029;-77
2022/01/03 05:47:06;;;;;;;27.05;4.38;;;9.70;99.90;;;;;;5018649;28;20025;-80
2022/01/03 05:49:31;;;;;;;37.92;4.85;;;9.70;99.90;;;;;;5035178;28;20044;-77
2022/01/03 05:51:57;;;;;;;42.42;4.68;;;9.70;99.90;;;;;;5035893;28;20053;-76
2022/01/03 05:54:22;;;;;;;47.58;5.65;;;9.70;99.90;;;;;;5035722;28;20037;-77
2022/01/03 05:56:48;;;;;;;44.65;5.57;;;9.70;99.90;;;;;;5034893;28;20021;-76
2022/01/03 05:59:13;;;;;;;39.13;4.70;;;9.70;99.90;;;;;;5035052;28;20049;-77
2022/01/03 06:01:40;;;;;;;49.72;6.68;;;9.60;99.90;;;;;;5037592;28;20030;-78
2022/01/03 06:04:21;;;;;;;40.20;5.07;;;9.60;99.90;;;;;;5037310;28;20028;-77
2022/01/03 06:06:59;;;;;;;39.60;5.57;;;9.60;99.90;;;;;;5037090;28;20087;-77
2022/01/03 06:09:25;;;;;;;44.55;5.88;;;9.60;99.90;;;;;;5034744;28;20029;-78
2022/01/03 06:11:53;;;;;;;45.55;5.50;;;9.70;99.90;;;;;;5036194;28;20036;-77
2022/01/03 06:14:20;;;;;;;51.97;5.90;;;9.70;99.90;;;;;;5038221;28;20030;-76
2022/01/03 06:16:47;;;;;;;44.85;5.25;;;9.70;99.90;;;;;;5038458;28;20021;-76
2022/01/03 06:19:13;;;;;;;48.67;5.28;;;9.70;99.90;;;;;;5039083;28;20028;-79
2022/01/03 06:21:41;;;;;;;40.65;5.90;;;9.80;99.90;;;;;;5040674;28;20049;-77
2022/01/03 06:24:15;;;;;;;50.67;5.55;;;9.80;99.90;;;;;;5043856;28;20462;-76
2022/01/03 06:26:42;;;;;;;42.40;5.60;;;9.80;99.90;;;;;;5037380;28;20021;-77
2022/01/03 06:29:13;;;;;;;41.63;5.28;;;9.80;99.90;;;;;;5036623;28;20025;-75
2022/01/03 06:31:39;;;;;;;38.65;4.93;;;9.80;99.90;;;;;;5037325;28;20076;-75
2022/01/03 06:34:05;;;;;;;40.92;5.60;;;9.80;99.90;;;;;;5037069;28;20115;-76
2022/01/03 06:36:31;;;;;;;47.47;6.68;;;9.80;99.90;;;;;;5042150;28;20017;-75
2022/01/03 06:38:57;;;;;;;48.80;5.38;;;9.80;99.90;;;;;;5039705;28;20032;-78
2022/01/03 06:41:23;;;;;;;53.00;7.38;;;9.90;99.90;;;;;;5037924;28;20029;-74
2022/01/03 06:43:49;;;;;;;47.40;6.28;;;9.80;99.90;;;;;;5035349;28;20044;-74
2022/01/03 06:46:16;;;;;;;52.72;5.72;;;9.80;99.90;;;;;;5035632;28;20037;-77
2022/01/03 06:48:43;;;;;;;56.30;7.35;;;9.80;99.90;;;;;;5035839;28;20037;-76
2022/01/03 06:51:09;;;;;;;50.60;6.38;;;9.80;99.90;;;;;;5035038;28;20083;-75
2022/01/03 06:53:35;;;;;;;50.92;5.82;;;9.80;99.90;;;;;;5017695;28;20032;-75
2022/01/03 06:56:01;;;;;;;50.88;5.63;;;9.80;99.90;;;;;;5035087;28;20021;-76
2022/01/03 06:58:26;;;;;;;52.25;5.85;;;9.80;99.90;;;;;;5035463;28;20022;-76
2022/01/03 07:00:52;;;;;;;54.85;6.57;;;9.90;99.90;;;;;;5035072;28;20391;-76
2022/01/03 07:03:17;;;;;;;48.78;7.65;;;9.90;99.90;;;;;;5034647;28;20048;-75
2022/01/03 07:05:43;;;;;;;57.28;6.30;;;9.90;99.90;;;;;;5035068;28;20030;-75
2022/01/03 07:08:09;;;;;;;62.05;6.40;;;9.90;99.90;;;;;;5036181;28;20072;-77
2022/01/03 07:10:34;;;;;;;52.72;6.70;;;9.90;99.90;;;;;;5036470;28;20041;-75
2022/01/03 07:13:01;;;;;;;52.17;7.75;;;9.90;99.90;;;;;;5035737;28;20037;-76
2022/01/03 07:20:55;;;;;;;55.65;6.93;;;9.90;99.90;;;;;;5034992;28;20045;-76
2022/01/03 07:23:22;;;;;;;54.80;6.32;;;9.90;99.90;;;;;;5034702;28;20029;-75
2022/01/03 07:25:47;;;;;;;56.25;5.97;;;9.90;99.90;;;;;;5034371;28;20429;-76
2022/01/03 07:28:14;;;;;;;56.05;6.40;;;9.90;99.90;;;;;;5035432;28;20056;-77
2022/01/03 07:30:40;;;;;;;52.35;5.97;;;9.90;99.90;;;;;;5035768;28;20390;-77
2022/01/03 07:33:06;;;;;;;53.08;6.20;;;10.00;99.90;;;;;;5035108;28;20021;-75
2022/01/03 07:35:32;;;;;;;61.05;6.57;;;10.00;99.90;;;;;;5035435;28;20022;-75
2022/01/03 07:37:58;;;;;;;57.17;6.07;;;9.90;99.90;;;;;;5035717;28;20026;-76
2022/01/03 07:40:25;;;;;;;51.47;6.82;;;10.00;99.90;;;;;;5036917;28;20017;-75
2022/01/03 07:42:51;;;;;;;71.28;8.52;;;10.00;99.90;;;;;;5045682;28;20033;-76
2022/01/03 07:45:16;;;;;;;53.47;5.90;;;10.00;99.90;;;;;;5054538;28;20033;-75
2022/01/03 07:47:42;;;;;;;45.55;5.90;;;10.00;99.90;;;;;;5053734;28;20017;-78
2022/01/03 07:50:09;;;;;;;49.67;6.40;;;10.00;99.90;;;;;;5055230;28;20124;-76
2022/01/03 07:52:36;;;;;;;49.70;6.22;;;10.00;99.90;;;;;;5056686;28;20030;-76
2022/01/03 07:55:04;;;;;;;64.80;6.97;;;10.10;99.90;;;;;;5055656;28;20048;-77
2022/01/03 07:57:29;;;;;;;56.67;6.65;;;10.00;99.90;;;;;;5053700;28;20040;-75
2022/01/03 07:59:55;;;;;;;51.83;6.75;;;10.00;99.90;;;;;;5055500;28;20081;-77
2022/01/03 08:02:21;;;;;;;53.60;6.50;;;10.00;99.90;;;;;;5056274;28;20009;-80
2022/01/03 08:07:19;;;;;;;49.17;6.45;;;9.90;99.90;;;;;;5125577;27;20203;-75
2022/01/03 08:09:44;;;;;;;50.50;5.70;;;10.00;99.90;;;;;;5116196;28;20067;-76
2022/01/03 08:12:10;;;;;;;55.08;6.70;;;9.90;99.90;;;;;;5118261;28;20032;-78
2022/01/03 08:14:35;;;;;;;62.40;6.35;;;9.90;99.90;;;;;;5115057;28;20031;-78
2022/01/03 08:17:01;;;;;;;64.45;7.78;;;9.80;99.90;;;;;;5115221;28;20336;-77
2022/01/03 08:19:27;;;;;;;45.22;5.80;;;9.90;99.90;;;;;;5115824;28;20024;-78
2022/01/03 08:21:52;;;;;;;48.50;6.63;;;9.90;99.90;;;;;;5117740;28;20023;-77
2022/01/03 08:24:18;;;;;;;44.42;5.70;;;9.90;99.90;;;;;;5110520;28;20541;-75
2022/01/03 08:26:44;;;;;;;53.20;6.22;;;9.90;99.90;;;;;;5109791;28;20051;-75
2022/01/03 08:29:10;;;;;;;64.28;7.40;;;9.90;99.90;;;;;;5109925;28;20051;-75
2022/01/03 08:31:39;;;;;;;53.20;6.47;;;10.00;99.90;;;;;;5110184;28;20448;-76
2022/01/03 08:34:05;;;;;;;51.60;5.85;;;10.00;99.90;;;;;;5110643;28;20027;-74
2022/01/03 08:36:31;;;;;;;54.38;7.05;;;10.00;99.90;;;;;;5109696;28;20081;-76
2022/01/03 08:38:57;;;;;;;47.45;6.53;;;10.10;99.90;;;;;;5111891;28;20427;-75
2022/01/03 08:41:22;;;;;;;49.50;6.78;;;10.00;99.90;;;;;;5113633;28;20054;-76
2022/01/03 08:43:48;;;;;;;65.70;6.28;;;10.10;99.90;;;;;;5115942;28;20574;-75
2022/01/03 08:46:13;;;;;;;69.40;7.15;;;10.00;99.90;;;;;;5111647;28;20032;-76
2022/01/03 08:48:39;;;;;;;58.45;6.93;;;10.10;99.90;;;;;;5111905;28;20075;-76
2022/01/03 08:51:05;;;;;;;50.75;6.90;;;10.00;99.90;;;;;;5112304;28;20055;-75
2022/01/03 08:53:31;;;;;;;56.15;7.22;;;10.00;99.90;;;;;;5119151;28;20035;-75
2022/01/03 08:55:58;;;;;;;51.53;6.25;;;10.00;99.90;;;;;;5120110;28;20056;-77
2022/01/03 08:58:24;;;;;;;56.08;6.47;;;10.00;99.90;;;;;;5128927;28;20024;-75
2022/01/03 09:00:50;;;;;;;50.75;6.18;;;10.10;99.90;;;;;;5120579;28;20040;-77
2022/01/03 09:03:16;;;;;;;50.97;6.35;;;10.10;99.90;;;;;;5111018;28;20020;-76
2022/01/03 09:05:42;;;;;;;55.25;6.95;;;10.10;99.90;;;;;;5114352;28;20034;-76
2022/01/03 09:08:09;;;;;;;48.35;6.63;;;10.10;99.90;;;;;;5112282;28;20106;-76
2022/01/03 09:10:35;;;;;;;53.05;6.07;;;10.10;99.90;;;;;;5115056;28;20469;-75
2022/01/03 09:13:01;;;;;;;73.90;13.95;;;10.10;99.90;;;;;;5116664;28;20157;-75
2022/01/03 09:15:26;;;;;;;60.00;6.88;;;10.20;99.90;;;;;;5118768;28;20062;-76
2022/01/03 09:17:52;;;;;;;55.95;7.35;;;10.10;99.90;;;;;;5108762;28;20030;-75
2022/01/03 09:20:18;;;;;;;55.25;6.88;;;10.10;99.90;;;;;;5103517;28;20024;-77
2022/01/03 09:22:47;;;;;;;54.85;7.30;;;10.00;99.90;;;;;;5106002;28;20020;-77
2022/01/03 09:30:41;;;;;;;52.60;6.90;;;10.00;99.90;;;;;;5103005;28;20043;-75
2022/01/03 09:33:07;;;;;;;57.00;7.07;;;10.00;99.90;;;;;;5099574;28;20024;-75
2022/01/03 09:35:32;;;;;;;56.83;7.13;;;10.00;99.90;;;;;;5097514;28;20020;-75
2022/01/03 09:37:58;;;;;;;61.35;6.38;;;10.00;99.90;;;;;;5097065;28;20028;-76
2022/01/03 09:40:23;;;;;;;56.15;9.07;;;10.00;99.90;;;;;;5095673;28;20028;-76
2022/01/03 09:42:55;;;;;;;91.60;26.95;;;10.00;99.90;;;;;;5096442;28;20028;-77
2022/01/03 09:45:21;;;;;;;44.45;6.53;;;10.00;99.90;;;;;;5098107;28;20031;-74
2022/01/03 09:47:49;;;;;;;84.70;12.90;;;10.00;99.90;;;;;;5098042;28;20107;-76
2022/01/03 09:50:21;;;;;;;48.05;6.22;;;9.90;99.90;;;;;;5097059;28;20358;-75
2022/01/03 09:52:50;;;;;;;56.83;7.13;;;9.90;99.90;;;;;;5100763;28;20491;-78
2022/01/03 09:55:18;;;;;;;55.10;6.97;;;10.00;99.90;;;;;;5093982;28;20039;-77
2022/01/03 09:57:45;;;;;;;64.47;9.32;;;10.00;99.90;;;;;;5095426;28;20020;-77
2022/01/03 10:00:14;;;;;;;73.13;7.45;;;10.10;99.90;;;;;;5094895;28;20035;-75
2022/01/03 10:02:40;;;;;;;54.25;7.50;;;10.10;99.90;;;;;;5094839;28;20037;-75
2022/01/03 10:05:07;;;;;;;56.22;6.97;;;10.10;99.90;;;;;;5094539;28;20102;-76
2022/01/03 10:07:33;;;;;;;56.10;6.63;;;10.30;99.90;;;;;;5094374;28;20106;-75
2022/01/03 10:10:00;;;;;;;50.80;6.63;;;10.50;99.90;;;;;;5096256;28;20058;-76
2022/01/03 10:12:26;;;;;;;61.45;7.43;;;10.50;99.90;;;;;;5095394;28;20329;-76
2022/01/03 10:14:51;;;;;;;49.45;6.43;;;10.60;99.90;;;;;;5096440;28;20056;-76
2022/01/03 10:17:17;;;;;;;57.17;8.13;;;10.70;99.90;;;;;;5094084;28;20027;-76
2022/01/03 10:19:49;;;;;;;52.88;6.65;;;10.70;99.90;;;;;;5095283;28;20024;-74
2022/01/03 10:22:26;;;;;;;52.90;6.80;;;10.70;99.90;;;;;;5097236;28;20621;-75
2022/01/03 10:24:52;;;;;;;60.47;7.72;;;10.80;99.90;;;;;;5096869;28;20127;-75
2022/01/03 10:27:19;;;;;;;59.95;7.97;;;10.80;99.90;;;;;;5093377;28;20028;-76
2022/01/03 10:29:56;;;;;;;51.92;6.88;;;10.80;99.90;;;;;;5093752;28;20028;-76
2022/01/03 10:32:30;;;;;;;54.65;6.63;;;10.90;99.90;;;;;;5094103;28;20077;-76
2022/01/03 10:35:16;;;;;;;53.30;7.33;;;11.00;99.90;;;;;;5095067;28;20066;-76
2022/01/03 10:37:42;;;;;;;49.97;6.40;;;11.10;99.90;;;;;;5099624;28;20051;-76
2022/01/03 10:40:27;;;;;;;55.42;7.57;;;11.20;99.90;;;;;;5096167;28;20024;-75
2022/01/03 10:42:55;;;;;;;48.88;5.90;;;11.20;99.90;;;;;;5096919;28;20023;-78
2022/01/03 10:45:34;;;;;;;41.97;5.43;;;11.30;99.90;;;;;;5095188;28;20037;-74
2022/01/03 10:48:01;;;;;;;57.03;6.82;;;11.20;99.90;;;;;;5093868;28;20025;-75
2022/01/03 10:50:28;;;;;;;50.15;7.18;;;11.20;99.90;;;;;;5095505;28;20512;-77
2022/01/03 10:52:54;;;;;;;46.22;6.57;;;11.20;99.90;;;;;;5095052;28;20020;-76
2022/01/03 10:55:33;;;;;;;50.85;7.35;;;11.10;99.90;;;;;;5095105;28;20035;-76
2022/01/03 10:58:05;;;;;;;41.47;6.13;;;11.10;99.90;;;;;;5095218;28;20107;-77
2022/01/03 11:00:32;;;;;;;49.05;7.03;;;11.10;99.90;;;;;;5094466;28;20237;-77
2022/01/03 11:05:55;;;;;;;48.63;7.53;;;11.00;99.90;;;;;;5096201;28;20508;-77
2022/01/03 11:11:09;;;;;;;55.30;6.82;;;11.10;99.90;;;;;;5094854;28;20081;-77
2022/01/03 11:13:47;;;;;;;47.45;6.60;;;11.30;99.90;;;;;;5095731;28;20087;-77
2022/01/03 11:16:13;;;;;;;64.47;8.02;;;11.40;99.90;;;;;;5093561;28;20077;-77
2022/01/03 11:18:44;;;;;;;50.78;6.45;;;11.50;99.90;;;;;;5099450;28;20024;-77
2022/01/03 11:21:23;;;;;;;41.30;6.30;;;11.70;99.90;;;;;;5098841;28;20031;-78
2022/01/03 11:24:09;;;;;;;53.33;7.28;;;11.80;99.90;;;;;;5097838;28;20028;-76
2022/01/03 11:26:40;;;;;;;53.47;6.80;;;11.80;99.90;;;;;;5097394;28;20032;-78
2022/01/03 11:29:06;;;;;;;44.67;6.03;;;11.70;99.90;;;;;;5095717;28;20032;-79
2022/01/03 11:31:33;;;;;;;53.05;7.07;;;11.90;99.90;;;;;;5099823;28;20016;-75
2022/01/03 11:34:00;;;;;;;60.45;7.00;;;12.00;99.90;;;;;;5096920;28;20031;-77
2022/01/03 11:36:27;;;;;;;51.72;6.25;;;12.00;99.90;;;;;;5104725;28;20032;-76
2022/01/03 11:38:55;;;;;;;57.75;7.25;;;11.90;99.90;;;;;;5096415;28;20028;-76
2022/01/03 11:41:21;;;;;;;51.38;6.85;;;11.80;99.90;;;;;;5094060;28;20062;-76
2022/01/03 11:43:49;;;;;;;47.78;6.55;;;11.80;99.90;;;;;;5099826;28;20050;-76
2022/01/03 11:46:14;;;;;;;55.45;6.93;;;11.60;99.90;;;;;;5096674;28;20459;-77
2022/01/03 11:48:40;;;;;;;49.08;6.78;;;11.50;99.90;;;;;;5093714;28;20028;-77
2022/01/03 11:51:11;;;;;;;47.88;6.93;;;11.40;99.90;;;;;;5092944;28;20028;-77
2022/01/03 11:53:42;;;;;;;59.10;8.35;;;11.40;99.90;;;;;;5094876;28;20045;-76
2022/01/03 11:56:15;;;;;;;55.90;6.95;;;11.40;99.90;;;;;;5097744;28;20032;-76
2022/01/03 12:04:13;;;;;;;44.80;9.05;;;12.00;99.90;;;;;;5095970;28;20035;-77
2022/01/03 12:06:41;;;;;;;55.17;8.55;;;12.20;99.90;;;;;;5094563;28;20051;-77
2022/01/03 12:09:12;;;;;;;62.75;13.82;;;12.40;99.90;;;;;;5093690;28;20020;-76
2022/01/03 12:11:56;;;;;;;48.45;8.20;;;12.70;99.90;;;;;;5097984;28;20492;-77
2022/01/03 12:14:24;;;;;;;59.03;7.43;;;13.10;99.90;;;;;;5095978;28;20032;-76
2022/01/03 12:16:56;;;;;;;52.58;7.40;;;12.80;99.90;;;;;;5095634;28;20469;-76
2022/01/03 12:19:30;;;;;;;62.50;7.05;;;12.60;99.90;;;;;;5094468;28;20027;-76
2022/01/03 12:22:20;;;;;;;45.88;6.15;;;12.20;99.90;;;;;;5093898;28;20043;-75
2022/01/03 12:24:48;;;;;;;42.97;5.72;;;12.10;99.90;;;;;;5093029;28;20060;-76
2022/01/03 12:27:14;;;;;;;53.50;7.50;;;11.80;99.90;;;;;;5098386;28;20020;-76
2022/01/03 12:29:55;;;;;;;56.40;8.02;;;11.90;99.90;;;;;;5096680;28;20023;-75
2022/01/03 12:32:23;;;;;;;50.97;8.82;;;11.80;99.90;;;;;;5097218;28;20451;-75
2022/01/03 12:35:07;;;;;;;38.88;5.93;;;11.80;99.90;;;;;;5093731;28;20043;-77
2022/01/03 12:37:38;;;;;;;32.65;4.40;;;11.80;99.90;;;;;;5093237;28;20092;-77
2022/01/03 12:40:04;;;;;;;45.50;5.47;;;11.70;99.90;;;;;;5094669;28;20044;-78
2022/01/03 12:42:54;;;;;;;38.33;6.13;;;11.60;99.90;;;;;;5096595;28;20020;-76
2022/01/03 12:45:25;;;;;;;53.13;7.82;;;11.70;99.90;;;;;;5099083;28;20038;-77
2022/01/03 12:47:51;;;;;;;53.88;7.15;;;11.80;99.90;;;;;;5100987;28;20032;-78
2022/01/03 12:50:27;;;;;;;46.67;6.55;;;11.70;99.90;;;;;;5093667;28;20103;-76
2022/01/03 12:52:54;;;;;;;47.13;6.20;;;11.70;99.90;;;;;;5095666;28;20404;-77
2022/01/03 12:55:58;;;;;;;50.15;5.68;;;11.70;99.90;;;;;;5099874;28;20016;-76
2022/01/03 12:58:23;;;;;;;60.30;7.38;;;11.70;99.90;;;;;;5080725;28;20028;-75
2022/01/03 13:01:00;;;;;;;38.65;5.82;;;11.70;99.90;;;;;;5101865;28;20062;-77
2022/01/03 13:03:37;;;;;;;40.17;5.35;;;11.60;99.90;;;;;;5098589;28;20783;-76
2022/01/03 13:06:05;;;;;;;40.53;5.70;;;11.60;99.90;;;;;;5096058;28;20043;-77
2022/01/03 13:08:36;;;;;;;34.17;5.10;;;11.60;99.90;;;;;;5096285;28;20579;-77
2022/01/03 13:11:08;;;;;;;48.05;6.93;;;11.50;99.90;;;;;;5096403;28;20087;-75
2022/01/03 13:13:38;;;;;;;40.40;6.70;;;11.50;99.90;;;;;;5096014;28;20020;-76
2022/01/03 13:16:28;;;;;;;50.50;5.63;;;11.40;99.90;;;;;;5096912;28;20024;-75